sensor_id;sensor_type;location;lat;lon;timestamp;pressure;altitude;pressure_sealevel;temperature;humidity
32320;BME280;19080;51.750;5.888;2023-05-23T00:02:13;101488.78;;;15.92;100.00
32320;BME280;19080;51.750;5.888;2023-05-23T00:04:41;101580.03;;;16.47;100.00
32320;BME280;19080;51.750;5.888;2023-05-23T00:07:08;101380.59;;;15.32;100.00
32320;BME280;19080;51.750;5.888;2023-05-23T00:09:35;101566.63;;;16.41;100.00
32320;BME280;19080;51.750;5.888;2023-05-23T00:12:02;101588.06;;;16.47;100.00
32320;BME280;19080;51.750;5.888;2023-05-23T00:14:28;101508.47;;;16.06;100.00
32320;BME280;19080;51.750;5.888;2023-05-23T00:16:59;101567.50;;;16.35;100.00
32320;BME280;19080;51.750;5.888;2023-05-23T00:19:27;101485.19;;;15.87;100.00
32320;BME280;19080;51.750;5.888;2023-05-23T00:21:54;101593.44;;;16.42;100.00
32320;BME280;19080;51.750;5.888;2023-05-23T00:24:24;101601.47;;;16.44;100.00
32320;BME280;19080;51.750;5.888;2023-05-23T00:26:51;101583.59;;;16.37;100.00
32320;BME280;19080;51.750;5.888;2023-05-23T00:29:17;101510.19;;;15.90;100.00
32320;BME280;19080;51.750;5.888;2023-05-23T00:31:45;101526.31;;;16.03;100.00
32320;BME280;19080;51.750;5.888;2023-05-23T00:34:16;101589.81;;;16.33;100.00
32320;BME280;19080;51.750;5.888;2023-05-23T00:36:43;101609.50;;;16.41;100.00
32320;BME280;19080;51.750;5.888;2023-05-23T00:39:12;101604.13;;;16.35;100.00
32320;BME280;19080;51.750;5.888;2023-05-23T00:41:48;101613.94;;;16.36;100.00
32320;BME280;19080;51.750;5.888;2023-05-23T00:44:17;101561.13;;;16.04;100.00
32320;BME280;19080;51.750;5.888;2023-05-23T00:46:51;101524.44;;;15.80;100.00
32320;BME280;19080;51.750;5.888;2023-05-23T00:49:19;101550.41;;;15.98;100.00
32320;BME280;19080;51.750;5.888;2023-05-23T00:51:46;101567.38;;;16.02;100.00
32320;BME280;19080;51.750;5.888;2023-05-23T00:54:17;101602.25;;;16.18;100.00
32320;BME280;19080;51.750;5.888;2023-05-23T00:56:44;101593.31;;;16.16;100.00
32320;BME280;19080;51.750;5.888;2023-05-23T00:59:10;101594.19;;;16.08;100.00
32320;BME280;19080;51.750;5.888;2023-05-23T01:01:38;101572.69;;;15.92;100.00
32320;BME280;19080;51.750;5.888;2023-05-23T01:04:05;101614.75;;;16.16;100.00
32320;BME280;19080;51.750;5.888;2023-05-23T01:06:32;101535.94;;;15.62;100.00
32320;BME280;19080;51.750;5.888;2023-05-23T01:08:59;101608.44;;;16.05;100.00
32320;BME280;19080;51.750;5.888;2023-05-23T01:11:38;101544.88;;;15.65;100.00
32320;BME280;19080;51.750;5.888;2023-05-23T01:14:12;101612.81;;;15.85;100.00
32320;BME280;19080;51.750;5.888;2023-05-23T01:16:47;101627.13;;;15.90;100.00
32320;BME280;19080;51.750;5.888;2023-05-23T01:22:07;101609.09;;;15.65;100.00
32320;BME280;19080;51.750;5.888;2023-05-23T01:27:51;101633.25;;;15.74;100.00
32320;BME280;19080;51.750;5.888;2023-05-23T01:30:20;101637.66;;;15.66;100.00
32320;BME280;19080;51.750;5.888;2023-05-23T01:32:50;101620.63;;;15.56;100.00
32320;BME280;19080;51.750;5.888;2023-05-23T01:35:24;101600.91;;;15.40;100.00
32320;BME280;19080;51.750;5.888;2023-05-23T01:37:56;101593.69;;;15.30;100.00
32320;BME280;19080;51.750;5.888;2023-05-23T01:40:23;101625.94;;;15.48;100.00
32320;BME280;19080;51.750;5.888;2023-05-23T01:42:52;101623.13;;;15.33;100.00
32320;BME280;19080;51.750;5.888;2023-05-23T01:45:20;101563.16;;;15.04;100.00
32320;BME280;19080;51.750;5.888;2023-05-23T01:47:48;101551.53;;;14.98;100.00
32320;BME280;19080;51.750;5.888;2023-05-23T01:50:16;101640.16;;;15.43;100.00
32320;BME280;19080;51.750;5.888;2023-05-23T01:52:45;101642.78;;;15.38;100.00
32320;BME280;19080;51.750;5.888;2023-05-23T01:55:13;101642.69;;;15.26;100.00
32320;BME280;19080;51.750;5.888;2023-05-23T01:57:42;101651.56;;;15.22;100.00
32320;BME280;19080;51.750;5.888;2023-05-23T02:00:09;101560.16;;;14.67;100.00
32320;BME280;19080;51.750;5.888;2023-05-23T02:02:40;101634.53;;;15.11;100.00
32320;BME280;19080;51.750;5.888;2023-05-23T02:05:09;101607.63;;;14.92;100.00
32320;BME280;19080;51.750;5.888;2023-05-23T02:07:36;101661.31;;;15.14;100.00
32320;BME280;19080;51.750;5.888;2023-05-23T02:10:06;101657.63;;;15.04;100.00
32320;BME280;19080;51.750;5.888;2023-05-23T02:12:34;101640.59;;;14.91;100.00
32320;BME280;19080;51.750;5.888;2023-05-23T02:15:02;101653.09;;;14.95;100.00
32320;BME280;19080;51.750;5.888;2023-05-23T02:17:29;101662.13;;;15.07;100.00
32320;BME280;19080;51.750;5.888;2023-05-23T02:19:56;101588.72;;;14.73;100.00
32320;BME280;19080;51.750;5.888;2023-05-23T02:22:23;101652.41;;;15.15;100.00
32320;BME280;19080;51.750;5.888;2023-05-23T02:24:51;101655.06;;;15.13;100.00
32320;BME280;19080;51.750;5.888;2023-05-23T02:27:18;101567.28;;;14.68;100.00
32320;BME280;19080;51.750;5.888;2023-05-23T02:29:45;101668.50;;;15.21;100.00
32320;BME280;19080;51.750;5.888;2023-05-23T02:32:11;101576.25;;;14.73;100.00
32320;BME280;19080;51.750;5.888;2023-05-23T02:34:38;101550.28;;;14.58;100.00
32320;BME280;19080;51.750;5.888;2023-05-23T02:37:06;101599.53;;;14.85;100.00
32320;BME280;19080;51.750;5.888;2023-05-23T02:39:35;101680.13;;;15.26;100.00
32320;BME280;19080;51.750;5.888;2023-05-23T02:42:02;101680.13;;;15.23;100.00
32320;BME280;19080;51.750;5.888;2023-05-23T02:44:31;101666.63;;;15.12;100.00
32320;BME280;19080;51.750;5.888;2023-05-23T02:46:57;101674.75;;;15.23;100.00
32320;BME280;19080;51.750;5.888;2023-05-23T02:49:24;101661.34;;;15.17;100.00
32320;BME280;19080;51.750;5.888;2023-05-23T02:51:51;101683.69;;;15.25;100.00
32320;BME280;19080;51.750;5.888;2023-05-23T02:54:18;101550.16;;;14.48;100.00
32320;BME280;19080;51.750;5.888;2023-05-23T02:56:45;101679.25;;;15.27;100.00
32320;BME280;19080;51.750;5.888;2023-05-23T02:59:12;101605.75;;;14.84;100.00
32320;BME280;19080;51.750;5.888;2023-05-23T03:01:39;101656.81;;;15.10;100.00
32320;BME280;19080;51.750;5.888;2023-05-23T03:04:06;101566.34;;;14.61;100.00
32320;BME280;19080;51.750;5.888;2023-05-23T03:06:32;101586.00;;;14.70;100.00
32320;BME280;19080;51.750;5.888;2023-05-23T03:09:00;101661.28;;;15.12;100.00
32320;BME280;19080;51.750;5.888;2023-05-23T03:11:26;101680.13;;;15.26;100.00
32320;BME280;19080;51.750;5.888;2023-05-23T03:13:55;101679.22;;;15.22;100.00
32320;BME280;19080;51.750;5.888;2023-05-23T03:16:21;101659.47;;;15.10;100.00
32320;BME280;19080;51.750;5.888;2023-05-23T03:18:49;101689.03;;;15.25;100.00
32320;BME280;19080;51.750;5.888;2023-05-23T03:21:16;101658.53;;;15.05;100.00
32320;BME280;19080;51.750;5.888;2023-05-23T03:23:42;101615.56;;;14.83;100.00
32320;BME280;19080;51.750;5.888;2023-05-23T03:26:09;101691.66;;;15.17;100.00
32320;BME280;19080;51.750;5.888;2023-05-23T03:28:36;101620.81;;;14.76;100.00
32320;BME280;19080;51.750;5.888;2023-05-23T03:31:02;101688.88;;;15.07;100.00
32320;BME280;19080;51.750;5.888;2023-05-23T03:33:29;101586.53;;;14.40;100.00
32320;BME280;19080;51.750;5.888;2023-05-23T03:35:56;101625.97;;;14.59;100.00
32320;BME280;19080;51.750;5.888;2023-05-23T03:38:23;101692.25;;;14.90;100.00
32320;BME280;19080;51.750;5.888;2023-05-23T03:40:50;101672.56;;;14.82;100.00
32320;BME280;19080;51.750;5.888;2023-05-23T03:43:16;101693.16;;;14.92;100.00
32320;BME280;19080;51.750;5.888;2023-05-23T03:45:43;101676.22;;;14.92;100.00
32320;BME280;19080;51.750;5.888;2023-05-23T03:48:33;101672.59;;;14.87;100.00
32320;BME280;19080;51.750;5.888;2023-05-23T03:51:00;101680.72;;;14.96;100.00
32320;BME280;19080;51.750;5.888;2023-05-23T03:53:27;101706.66;;;15.05;100.00
32320;BME280;19080;51.750;5.888;2023-05-23T03:55:55;101568.63;;;14.29;100.00
32320;BME280;19080;51.750;5.888;2023-05-23T03:58:21;101707.63;;;15.10;100.00
32320;BME280;19080;51.750;5.888;2023-05-23T04:00:51;101694.16;;;15.01;100.00
32320;BME280;19080;51.750;5.888;2023-05-23T04:03:19;101704.94;;;15.10;100.00
32320;BME280;19080;51.750;5.888;2023-05-23T04:05:47;101695.06;;;15.04;100.00
32320;BME280;19080;51.750;5.888;2023-05-23T04:08:14;101712.16;;;15.18;100.00
32320;BME280;19080;51.750;5.888;2023-05-23T04:10:41;101694.25;;;15.10;100.00
32320;BME280;19080;51.750;5.888;2023-05-23T04:13:07;101712.13;;;15.14;100.00
32320;BME280;19080;51.750;5.888;2023-05-23T04:15:36;101685.28;;;15.05;100.00
32320;BME280;19080;51.750;5.888;2023-05-23T04:18:06;101723.84;;;15.28;100.00
32320;BME280;19080;51.750;5.888;2023-05-23T04:20:35;101721.25;;;15.34;100.00
32320;BME280;19080;51.750;5.888;2023-05-23T04:23:03;101705.94;;;15.21;100.00
32320;BME280;19080;51.750;5.888;2023-05-23T04:25:34;101641.41;;;14.86;100.00
32320;BME280;19080;51.750;5.888;2023-05-23T04:28:10;101649.47;;;14.90;100.00
32320;BME280;19080;51.750;5.888;2023-05-23T04:30:37;101731.09;;;15.38;100.00
32320;BME280;19080;51.750;5.888;2023-05-23T04:33:05;101732.91;;;15.42;100.00
32320;BME280;19080;51.750;5.888;2023-05-23T04:35:32;101740.97;;;15.45;100.00
32320;BME280;19080;51.750;5.888;2023-05-23T04:38:00;101710.47;;;15.26;100.00
32320;BME280;19080;51.750;5.888;2023-05-23T04:40:28;101741.91;;;15.52;100.00
32320;BME280;19080;51.750;5.888;2023-05-23T04:43:15;101748.19;;;15.55;100.00
32320;BME280;19080;51.750;5.888;2023-05-23T04:45:52;101735.66;;;15.51;100.00
32320;BME280;19080;51.750;5.888;2023-05-23T04:48:38;101732.94;;;15.47;100.00
32320;BME280;19080;51.750;5.888;2023-05-23T04:51:05;101716.75;;;15.33;100.00
32320;BME280;19080;51.750;5.888;2023-05-23T04:53:37;101719.47;;;15.36;100.00
32320;BME280;19080;51.750;5.888;2023-05-23T04:56:07;101674.63;;;15.08;100.00
32320;BME280;19080;51.750;5.888;2023-05-23T04:58:36;101758.03;;;15.56;100.00
32320;BME280;19080;51.750;5.888;2023-05-23T05:01:06;101743.56;;;15.39;100.00
32320;BME280;19080;51.750;5.888;2023-05-23T05:03:35;101740.94;;;15.42;100.00
32320;BME280;19080;51.750;5.888;2023-05-23T05:06:02;101657.34;;;14.77;100.00
32320;BME280;19080;51.750;5.888;2023-05-23T05:08:29;101746.09;;;15.22;100.00
32320;BME280;19080;51.750;5.888;2023-05-23T05:10:57;101776.53;;;15.35;100.00
32320;BME280;19080;51.750;5.888;2023-05-23T05:13:23;101754.09;;;15.22;100.00
32320;BME280;19080;51.750;5.888;2023-05-23T05:15:53;101759.38;;;15.15;100.00
32320;BME280;19080;51.750;5.888;2023-05-23T05:18:21;101783.63;;;15.30;100.00
32320;BME280;19080;51.750;5.888;2023-05-23T05:20:48;101771.84;;;15.14;100.00
32320;BME280;19080;51.750;5.888;2023-05-23T05:23:15;101783.47;;;15.18;100.00
32320;BME280;19080;51.750;5.888;2023-05-23T05:25:41;101708.19;;;14.81;100.00
32320;BME280;19080;51.750;5.888;2023-05-23T05:28:08;101774.53;;;15.16;100.00
32320;BME280;19080;51.750;5.888;2023-05-23T05:30:48;101693.81;;;14.70;100.00
32320;BME280;19080;51.750;5.888;2023-05-23T05:33:21;101715.22;;;14.73;100.00
32320;BME280;19080;51.750;5.888;2023-05-23T05:35:56;101768.13;;;15.02;100.00
32320;BME280;19080;51.750;5.888;2023-05-23T05:38:22;101794.97;;;15.09;100.00
32320;BME280;19080;51.750;5.888;2023-05-23T05:40:49;101799.47;;;15.15;100.00
32320;BME280;19080;51.750;5.888;2023-05-23T05:43:17;101776.13;;;14.98;100.00
32320;BME280;19080;51.750;5.888;2023-05-23T05:45:43;101806.53;;;15.07;100.00
32320;BME280;19080;51.750;5.888;2023-05-23T05:48:10;101780.44;;;14.87;100.00
32320;BME280;19080;51.750;5.888;2023-05-23T05:50:37;101816.34;;;15.08;100.00
32320;BME280;19080;51.750;5.888;2023-05-23T05:53:05;101800.16;;;14.97;100.00
32320;BME280;19080;51.750;5.888;2023-05-23T05:55:33;101695.09;;;14.34;100.00
32320;BME280;19080;51.750;5.888;2023-05-23T05:58:00;101815.19;;;14.87;100.00
32320;BME280;19080;51.750;5.888;2023-05-23T06:00:33;101743.25;;;14.41;100.00
32320;BME280;19080;51.750;5.888;2023-05-23T06:03:07;101771.06;;;14.53;100.00
32320;BME280;19080;51.750;5.888;2023-05-23T06:05:41;101823.09;;;14.80;100.00
32320;BME280;19080;51.750;5.888;2023-05-23T06:08:10;101801.53;;;14.66;100.00
32320;BME280;19080;51.750;5.888;2023-05-23T06:10:37;101800.47;;;14.55;100.00
32320;BME280;19080;51.750;5.888;2023-05-23T06:13:05;101845.22;;;14.68;100.00
32320;BME280;19080;51.750;5.888;2023-05-23T06:15:34;101824.50;;;14.53;100.00
32320;BME280;19080;51.750;5.888;2023-05-23T06:18:00;101853.97;;;14.58;100.00
32320;BME280;19080;51.750;5.888;2023-05-23T06:20:29;101854.69;;;14.48;100.00
32320;BME280;19080;51.750;5.888;2023-05-23T06:23:00;101641.13;;;13.34;100.00
32320;BME280;19080;51.750;5.888;2023-05-23T06:25:29;101752.25;;;13.88;100.00
32320;BME280;19080;51.750;5.888;2023-05-23T06:27:56;101851.19;;;14.52;100.00
32320;BME280;19080;51.750;5.888;2023-05-23T06:30:22;101853.88;;;14.52;100.00
32320;BME280;19080;51.750;5.888;2023-05-23T06:32:50;101826.16;;;14.44;100.00
32320;BME280;19080;51.750;5.888;2023-05-23T06:35:17;101866.72;;;14.77;100.00
32320;BME280;19080;51.750;5.888;2023-05-23T06:37:43;101787.81;;;14.42;100.00
32320;BME280;19080;51.750;5.888;2023-05-23T06:40:11;101779.72;;;14.39;100.00
32320;BME280;19080;51.750;5.888;2023-05-23T06:42:40;101850.66;;;14.76;100.00
32320;BME280;19080;51.750;5.888;2023-05-23T06:45:16;101853.50;;;14.88;100.00
32320;BME280;19080;51.750;5.888;2023-05-23T06:47:42;101875.91;;;14.96;100.00
32320;BME280;19080;51.750;5.888;2023-05-23T06:50:11;101800.53;;;14.58;100.00
32320;BME280;19080;51.750;5.888;2023-05-23T06:52:37;101867.16;;;15.09;100.00
32320;BME280;19080;51.750;5.888;2023-05-23T06:55:04;101865.50;;;15.19;100.00
32320;BME280;19080;51.750;5.888;2023-05-23T06:57:31;101847.63;;;15.15;100.00
32320;BME280;19080;51.750;5.888;2023-05-23T06:59:58;101868.16;;;15.17;100.00
32320;BME280;19080;51.750;5.888;2023-05-23T07:02:25;101798.19;;;14.82;100.00
32320;BME280;19080;51.750;5.888;2023-05-23T07:04:52;101894.34;;;15.44;100.00
32320;BME280;19080;51.750;5.888;2023-05-23T07:07:39;101872.66;;;15.20;100.00
32320;BME280;19080;51.750;5.888;2023-05-23T07:10:06;101823.09;;;14.80;100.00
32320;BME280;19080;51.750;5.888;2023-05-23T07:12:33;101889.56;;;15.17;100.00
32320;BME280;19080;51.750;5.888;2023-05-23T07:15:00;101822.25;;;14.82;100.00
32320;BME280;19080;51.750;5.888;2023-05-23T07:17:29;101816.84;;;14.78;100.00
32320;BME280;19080;51.750;5.888;2023-05-23T07:19:56;101877.25;;;15.32;100.00
32320;BME280;19080;51.750;5.888;2023-05-23T07:22:24;101845.13;;;15.30;100.00
32320;BME280;19080;51.750;5.888;2023-05-23T07:24:51;101916.16;;;15.78;100.00
32320;BME280;19080;51.750;5.888;2023-05-23T07:27:19;101913.59;;;15.87;100.00
32320;BME280;19080;51.750;5.888;2023-05-23T07:29:47;101920.91;;;16.06;100.00
32320;BME280;19080;51.750;5.888;2023-05-23T07:32:13;101817.72;;;15.49;100.00
32320;BME280;19080;51.750;5.888;2023-05-23T07:34:40;101889.44;;;15.84;100.00
32320;BME280;19080;51.750;5.888;2023-05-23T07:37:07;101862.50;;;15.66;100.00
32320;BME280;19080;51.750;5.888;2023-05-23T07:39:40;101923.66;;;16.12;100.00
32320;BME280;19080;51.750;5.888;2023-05-23T07:42:07;101917.94;;;16.68;100.00
32320;BME280;19080;51.750;5.888;2023-05-23T07:44:34;101914.75;;;17.44;100.00
32320;BME280;19080;51.750;5.888;2023-05-23T07:47:01;101912.22;;;17.85;100.00
32320;BME280;19080;51.750;5.888;2023-05-23T07:49:28;101856.75;;;18.05;93.83
32320;BME280;19080;51.750;5.888;2023-05-23T07:51:55;101923.97;;;18.78;85.71
32320;BME280;19080;51.750;5.888;2023-05-23T07:54:21;101901.53;;;18.79;83.90
32320;BME280;19080;51.750;5.888;2023-05-23T07:56:53;101922.09;;;19.08;79.61
32320;BME280;19080;51.750;5.888;2023-05-23T07:59:20;101858.53;;;18.52;79.57
32320;BME280;19080;51.750;5.888;2023-05-23T08:01:49;101947.28;;;18.82;78.00
32320;BME280;19080;51.750;5.888;2023-05-23T08:04:18;101944.56;;;18.57;79.06
32320;BME280;19080;51.750;5.888;2023-05-23T08:06:49;101921.25;;;18.45;78.82
32320;BME280;19080;51.750;5.888;2023-05-23T08:09:43;101938.28;;;18.54;80.05
32320;BME280;19080;51.750;5.888;2023-05-23T08:12:13;101911.41;;;18.32;81.01
32320;BME280;19080;51.750;5.888;2023-05-23T08:14:42;101930.22;;;18.32;82.29
32320;BME280;19080;51.750;5.888;2023-05-23T08:17:38;101945.41;;;18.08;86.34
32320;BME280;19080;51.750;5.888;2023-05-23T08:20:05;101882.69;;;17.91;90.87
32320;BME280;19080;51.750;5.888;2023-05-23T08:22:34;101939.22;;;18.70;85.05
32320;BME280;19080;51.750;5.888;2023-05-23T08:25:03;101943.69;;;18.71;83.18
32320;BME280;19080;51.750;5.888;2023-05-23T08:27:32;101961.59;;;19.01;83.99
32320;BME280;19080;51.750;5.888;2023-05-23T08:30:04;101965.13;;;19.12;82.18
32320;BME280;19080;51.750;5.888;2023-05-23T08:32:32;101944.56;;;19.04;81.27
32320;BME280;19080;51.750;5.888;2023-05-23T08:34:59;101900.66;;;18.59;81.45
32320;BME280;19080;51.750;5.888;2023-05-23T08:37:26;101974.19;;;18.81;85.00
32320;BME280;19080;51.750;5.888;2023-05-23T08:39:53;101965.22;;;18.79;84.20
32320;BME280;19080;51.750;5.888;2023-05-23T08:42:32;101931.13;;;18.87;84.59
32320;BME280;19080;51.750;5.888;2023-05-23T08:44:59;101965.97;;;19.36;81.08
32320;BME280;19080;51.750;5.888;2023-05-23T08:47:26;101957.03;;;19.23;80.69
32320;BME280;19080;51.750;5.888;2023-05-23T08:50:01;101912.28;;;18.96;81.66
32320;BME280;19080;51.750;5.888;2023-05-23T08:52:28;101897.97;;;18.68;83.48
32320;BME280;19080;51.750;5.888;2023-05-23T08:54:59;101962.50;;;19.05;83.25
32320;BME280;19080;51.750;5.888;2023-05-23T08:57:28;101969.69;;;18.75;85.86
32320;BME280;19080;51.750;5.888;2023-05-23T09:00:02;101971.50;;;18.64;89.28
32320;BME280;19080;51.750;5.888;2023-05-23T09:02:34;101957.09;;;18.35;88.45
32320;BME280;19080;51.750;5.888;2023-05-23T09:05:12;101924.81;;;18.03;91.91
32320;BME280;19080;51.750;5.888;2023-05-23T09:07:40;101992.94;;;18.37;93.91
32320;BME280;19080;51.750;5.888;2023-05-23T09:10:08;102001.94;;;18.59;92.11
32320;BME280;19080;51.750;5.888;2023-05-23T09:12:36;101981.28;;;18.24;90.30
32320;BME280;19080;51.750;5.888;2023-05-23T09:15:04;101963.31;;;17.96;92.31
32320;BME280;19080;51.750;5.888;2023-05-23T09:17:31;101985.78;;;18.40;91.48
32320;BME280;19080;51.750;5.888;2023-05-23T09:19:59;101982.22;;;18.58;85.95
32320;BME280;19080;51.750;5.888;2023-05-23T09:22:45;101917.69;;;18.73;74.24
32320;BME280;19080;51.750;5.888;2023-05-23T09:25:14;101974.91;;;19.45;73.53
32320;BME280;19080;51.750;5.888;2023-05-23T09:27:43;101990.94;;;19.88;68.08
32320;BME280;19080;51.750;5.888;2023-05-23T09:30:14;101999.69;;;20.30;65.26
32320;BME280;19080;51.750;5.888;2023-05-23T09:32:40;102001.53;;;20.25;60.76
32320;BME280;19080;51.750;5.888;2023-05-23T09:35:08;101955.72;;;20.20;60.01
32320;BME280;19080;51.750;5.888;2023-05-23T09:37:42;101986.81;;;20.74;60.01
32320;BME280;19080;51.750;5.888;2023-05-23T09:40:12;101989.09;;;21.14;56.62
32320;BME280;19080;51.750;5.888;2023-05-23T09:42:50;101935.50;;;20.77;55.50
32320;BME280;19080;51.750;5.888;2023-05-23T09:45:16;101994.91;;;20.73;54.60
32320;BME280;19080;51.750;5.888;2023-05-23T09:47:51;101999.53;;;20.57;55.29
32320;BME280;19080;51.750;5.888;2023-05-23T09:50:19;101994.09;;;20.63;54.46
32320;BME280;19080;51.750;5.888;2023-05-23T09:52:46;101990.47;;;21.56;53.20
32320;BME280;19080;51.750;5.888;2023-05-23T09:55:13;101969.00;;;22.15;50.02
32320;BME280;19080;51.750;5.888;2023-05-23T09:57:41;102007.25;;;22.49;49.43
32320;BME280;19080;51.750;5.888;2023-05-23T10:00:09;102002.59;;;22.57;49.35
32320;BME280;19080;51.750;5.888;2023-05-23T10:03:11;102001.22;;;22.30;49.64
32320;BME280;19080;51.750;5.888;2023-05-23T10:05:46;102006.84;;;22.15;50.02
32320;BME280;19080;51.750;5.888;2023-05-23T10:13:24;101981.81;;;21.21;52.42
32320;BME280;19080;51.750;5.888;2023-05-23T10:16:01;102000.28;;;20.77;52.58
32320;BME280;19080;51.750;5.888;2023-05-23T10:18:34;101883.34;;;19.45;54.34
32320;BME280;19080;51.750;5.888;2023-05-23T10:21:08;102004.06;;;20.52;51.69
32320;BME280;19080;51.750;5.888;2023-05-23T10:23:37;101934.88;;;20.45;49.79
32320;BME280;19080;51.750;5.888;2023-05-23T10:26:05;101992.81;;;21.01;49.39
32320;BME280;19080;51.750;5.888;2023-05-23T10:28:32;102005.81;;;21.54;48.21
32320;BME280;19080;51.750;5.888;2023-05-23T10:30:59;101995.53;;;22.48;48.91
32320;BME280;19080;51.750;5.888;2023-05-23T10:33:27;102007.88;;;23.66;44.17
32320;BME280;19080;51.750;5.888;2023-05-23T10:36:12;102002.19;;;24.20;42.21
32320;BME280;19080;51.750;5.888;2023-05-23T10:38:50;101939.44;;;23.55;42.23
32320;BME280;19080;51.750;5.888;2023-05-23T10:41:30;101942.88;;;22.67;43.72
32320;BME280;19080;51.750;5.888;2023-05-23T10:44:38;102009.47;;;22.79;45.77
32320;BME280;19080;51.750;5.888;2023-05-23T10:47:04;102022.19;;;23.26;43.35
32320;BME280;19080;51.750;5.888;2023-05-23T10:49:44;102018.50;;;22.80;44.55
32320;BME280;19080;51.750;5.888;2023-05-23T10:52:17;101967.25;;;23.18;42.82
32320;BME280;19080;51.750;5.888;2023-05-23T10:54:50;101997.56;;;23.38;42.19
32320;BME280;19080;51.750;5.888;2023-05-23T10:57:19;101979.44;;;23.85;41.22
32320;BME280;19080;51.750;5.888;2023-05-23T10:59:49;102004.88;;;24.21;39.95
32320;BME280;19080;51.750;5.888;2023-05-23T11:02:26;101977.72;;;23.81;39.13
32320;BME280;19080;51.750;5.888;2023-05-23T11:10:59;101996.41;;;25.08;37.59
32320;BME280;19080;51.750;5.888;2023-05-23T11:13:57;101995.44;;;25.10;36.54
32320;BME280;19080;51.750;5.888;2023-05-23T11:21:45;101939.28;;;22.65;41.75
32320;BME280;19080;51.750;5.888;2023-05-23T11:24:12;102008.22;;;22.98;41.09
32320;BME280;19080;51.750;5.888;2023-05-23T11:26:38;102005.88;;;23.28;40.41
32320;BME280;19080;51.750;5.888;2023-05-23T11:29:08;101926.16;;;23.84;39.64
32320;BME280;19080;51.750;5.888;2023-05-23T11:31:38;101968.16;;;24.79;37.58
32320;BME280;19080;51.750;5.888;2023-05-23T11:34:06;101986.44;;;25.41;35.87
32320;BME280;19080;51.750;5.888;2023-05-23T11:36:33;101980.63;;;25.54;35.40
32320;BME280;19080;51.750;5.888;2023-05-23T11:39:01;102001.91;;;24.69;37.00
32320;BME280;19080;51.750;5.888;2023-05-23T11:41:29;101987.06;;;24.84;36.05
32320;BME280;19080;51.750;5.888;2023-05-23T11:43:56;102000.47;;;24.90;36.85
32320;BME280;19080;51.750;5.888;2023-05-23T11:46:25;101983.25;;;24.91;36.30
32320;BME280;19080;51.750;5.888;2023-05-23T11:48:52;102006.47;;;25.04;36.91
32320;BME280;19080;51.750;5.888;2023-05-23T11:51:20;101985.38;;;23.62;38.10
32320;BME280;19080;51.750;5.888;2023-05-23T11:53:47;102007.34;;;24.32;38.52
32320;BME280;19080;51.750;5.888;2023-05-23T11:56:14;101997.97;;;24.82;36.51
32320;BME280;19080;51.750;5.888;2023-05-23T11:58:42;101995.97;;;25.57;36.39
32320;BME280;19080;51.750;5.888;2023-05-23T12:01:11;101994.69;;;27.11;34.33
32320;BME280;19080;51.750;5.888;2023-05-23T12:03:46;102002.31;;;26.16;35.40
32320;BME280;19080;51.750;5.888;2023-05-23T12:06:15;102012.19;;;24.92;36.38
32320;BME280;19080;51.750;5.888;2023-05-23T12:08:42;101901.63;;;23.47;37.32
32320;BME280;19080;51.750;5.888;2023-05-23T12:11:08;101912.50;;;23.01;37.64
32320;BME280;19080;51.750;5.888;2023-05-23T12:13:35;101839.25;;;23.07;37.09
32320;BME280;19080;51.750;5.888;2023-05-23T12:16:02;101988.63;;;23.33;38.13
32320;BME280;19080;51.750;5.888;2023-05-23T12:18:31;102020.38;;;23.25;38.18
32320;BME280;19080;51.750;5.888;2023-05-23T12:20:59;101992.34;;;24.16;36.89
32320;BME280;19080;51.750;5.888;2023-05-23T12:23:28;102024.22;;;23.63;38.34
32320;BME280;19080;51.750;5.888;2023-05-23T12:25:58;102009.22;;;22.93;39.79
32320;BME280;19080;51.750;5.888;2023-05-23T12:28:39;102026.69;;;22.72;40.80
32320;BME280;19080;51.750;5.888;2023-05-23T12:31:19;101953.66;;;22.15;40.26
32320;BME280;19080;51.750;5.888;2023-05-23T12:33:47;102023.47;;;22.50;39.78
32320;BME280;19080;51.750;5.888;2023-05-23T12:36:21;101905.97;;;22.10;38.98
32320;BME280;19080;51.750;5.888;2023-05-23T12:38:48;102026.94;;;23.14;38.85
32320;BME280;19080;51.750;5.888;2023-05-23T12:41:17;101988.63;;;23.33;39.86
32320;BME280;19080;51.750;5.888;2023-05-23T12:43:53;101973.59;;;23.16;38.67
32320;BME280;19080;51.750;5.888;2023-05-23T12:46:20;102030.69;;;24.39;35.79
32320;BME280;19080;51.750;5.888;2023-05-23T12:48:47;102022.66;;;25.43;35.48
32320;BME280;19080;51.750;5.888;2023-05-23T12:51:14;102006.63;;;25.96;34.18
32320;BME280;19080;51.750;5.888;2023-05-23T12:53:41;102021.19;;;25.29;34.49
32320;BME280;19080;51.750;5.888;2023-05-23T12:56:08;102046.13;;;23.95;36.93
32320;BME280;19080;51.750;5.888;2023-05-23T12:58:34;102049.22;;;23.29;38.85
32320;BME280;19080;51.750;5.888;2023-05-23T13:01:01;102021.41;;;22.64;41.07
32320;BME280;19080;51.750;5.888;2023-05-23T13:03:29;102039.00;;;22.37;41.40
32320;BME280;19080;51.750;5.888;2023-05-23T13:05:58;101974.09;;;22.36;40.39
32320;BME280;19080;51.750;5.888;2023-05-23T13:08:25;101977.34;;;22.56;40.15
32320;BME280;19080;51.750;5.888;2023-05-23T13:10:52;101932.59;;;21.72;40.56
32320;BME280;19080;51.750;5.888;2023-05-23T13:13:19;102019.28;;;22.28;40.56
32320;BME280;19080;51.750;5.888;2023-05-23T13:15:46;102034.44;;;22.96;39.52
32320;BME280;19080;51.750;5.888;2023-05-23T13:18:16;101958.41;;;23.53;38.66